createdAt,value
2024-01-17T00:01:27.489Z,-6.83
2024-01-17T00:03:55.649Z,-6.95
2024-01-17T00:06:22.610Z,-7.05
2024-01-17T00:08:49.938Z,-7.10
2024-01-17T00:11:18.024Z,-7.13
2024-01-17T00:13:44.871Z,-7.19
2024-01-17T00:16:11.813Z,-7.21
2024-01-17T00:18:40.441Z,-7.21
2024-01-17T00:21:07.471Z,-7.21
2024-01-17T00:23:34.327Z,-7.17
2024-01-17T00:26:02.559Z,-7.10
2024-01-17T00:28:29.393Z,-7.02
2024-01-17T00:30:56.370Z,-6.95
2024-01-17T00:33:24.492Z,-6.86
2024-01-17T00:35:51.827Z,-6.75
2024-01-17T00:38:18.716Z,-6.67
2024-01-17T00:40:46.887Z,-6.56
2024-01-17T00:43:13.819Z,-6.45
2024-01-17T00:45:40.776Z,-6.34
2024-01-17T00:48:08.931Z,-6.24
2024-01-17T00:50:36.150Z,-6.13
2024-01-17T00:53:03.052Z,-6.03
2024-01-17T00:55:31.116Z,-5.97
2024-01-17T00:57:58.052Z,-5.92
2024-01-17T01:00:25.308Z,-5.90
2024-01-17T01:02:53.554Z,-5.91
2024-01-17T01:05:20.630Z,-5.92
2024-01-17T01:07:47.571Z,-5.92
2024-01-17T01:10:15.754Z,-5.91
2024-01-17T01:12:42.684Z,-5.94
2024-01-17T01:15:09.744Z,-5.93
2024-01-17T01:17:38.191Z,-5.92
2024-01-17T01:20:05.271Z,-5.92
2024-01-17T01:22:32.135Z,-5.89
2024-01-17T01:25:00.358Z,-5.87
2024-01-17T01:27:27.228Z,-5.85
2024-01-17T01:29:54.228Z,-5.84
2024-01-17T01:32:22.664Z,-5.85
2024-01-17T01:34:49.652Z,-5.87
2024-01-17T01:37:16.642Z,-5.87
2024-01-17T01:39:45.116Z,-5.89
2024-01-17T01:42:12.122Z,-5.92
2024-01-17T01:44:39.060Z,-5.92
2024-01-17T01:47:07.384Z,-5.98
2024-01-17T01:49:34.108Z,-6.02
2024-01-17T01:52:01.065Z,-6.05
2024-01-17T01:54:29.652Z,-6.03
2024-01-17T01:56:56.617Z,-6.02
2024-01-17T01:59:23.348Z,-6.04
2024-01-17T02:01:51.513Z,-6.08
2024-01-17T02:04:18.567Z,-6.11
2024-01-17T02:06:45.522Z,-6.15
2024-01-17T02:09:13.724Z,-6.20
2024-01-17T02:11:40.685Z,-6.24
2024-01-17T02:14:07.680Z,-6.23
2024-01-17T02:16:35.934Z,-6.23
2024-01-17T02:19:02.889Z,-6.24
2024-01-17T02:21:29.620Z,-6.22
2024-01-17T02:23:57.818Z,-6.18
2024-01-17T02:26:24.768Z,-6.10
2024-01-17T02:28:51.689Z,-6.01
2024-01-17T02:31:19.957Z,-5.94
2024-01-17T02:33:47.104Z,-5.88
2024-01-17T02:36:14.284Z,-5.86
2024-01-17T02:38:42.484Z,-5.88
2024-01-17T02:41:09.482Z,-5.92
2024-01-17T02:43:36.210Z,-5.97
2024-01-17T02:46:04.287Z,-6.05
2024-01-17T02:48:31.282Z,-6.20
2024-01-17T02:50:58.410Z,-6.37
2024-01-17T02:53:26.682Z,-6.54
2024-01-17T02:55:53.797Z,-6.79
2024-01-17T02:58:20.644Z,-7.04
2024-01-17T03:00:48.849Z,-7.26
2024-01-17T03:03:15.906Z,-7.45
2024-01-17T03:05:42.790Z,-7.57
2024-01-17T03:08:10.982Z,-7.59
2024-01-17T03:10:37.831Z,-7.61
2024-01-17T03:13:04.777Z,-7.64
2024-01-17T03:15:32.845Z,-7.65
2024-01-17T03:18:00.350Z,-7.66
2024-01-17T03:20:27.473Z,-7.65
2024-01-17T03:22:55.619Z,-7.67
2024-01-17T03:25:22.573Z,-7.71
2024-01-17T03:27:49.462Z,-7.78
2024-01-17T03:30:17.797Z,-7.85
2024-01-17T03:32:44.901Z,-7.95
2024-01-17T03:35:12.048Z,-8.04
2024-01-17T03:37:40.071Z,-8.11
2024-01-17T03:40:07.439Z,-8.17
2024-01-17T03:42:34.369Z,-8.26
2024-01-17T03:45:02.677Z,-8.31
2024-01-17T03:47:29.743Z,-8.32
2024-01-17T03:49:56.769Z,-8.34
2024-01-17T03:52:25.316Z,-8.36
2024-01-17T03:54:52.160Z,-8.34
2024-01-17T03:57:19.102Z,-8.29
2024-01-17T03:59:47.095Z,-8.24
2024-01-17T04:02:14.046Z,-8.16
2024-01-17T04:04:41.030Z,-8.07
2024-01-17T04:07:09.286Z,-7.98
2024-01-17T04:09:36.287Z,-7.90
2024-01-17T04:12:03.278Z,-7.82
2024-01-17T04:14:31.470Z,-7.77
2024-01-17T04:17:00.146Z,-7.73
2024-01-17T04:19:27.222Z,-7.74
2024-01-17T04:21:55.516Z,-7.78
2024-01-17T04:24:22.586Z,-7.80
2024-01-17T04:26:49.639Z,-7.83
2024-01-17T04:29:17.682Z,-7.83
2024-01-17T04:31:44.639Z,-7.75
2024-01-17T04:34:11.641Z,-7.61
2024-01-17T04:36:40.041Z,-7.50
2024-01-17T04:39:07.042Z,-7.39
2024-01-17T04:41:34.489Z,-7.28
2024-01-17T04:44:02.812Z,-7.12
2024-01-17T04:46:29.643Z,-6.99
2024-01-17T04:48:56.734Z,-6.91
2024-01-17T04:51:25.173Z,-6.87
2024-01-17T04:53:52.055Z,-6.86
2024-01-17T04:56:19.062Z,-6.84
2024-01-17T04:58:47.335Z,-6.85
2024-01-17T05:01:14.189Z,-6.88
2024-01-17T05:03:41.485Z,-6.92
2024-01-17T05:06:09.846Z,-7.00
2024-01-17T05:08:36.911Z,-7.14
2024-01-17T05:11:03.801Z,-7.29
2024-01-17T05:13:31.972Z,-7.46
2024-01-17T05:15:58.620Z,-7.61
2024-01-17T05:18:25.781Z,-7.72
2024-01-17T05:20:54.095Z,-7.84
2024-01-17T05:23:21.101Z,-7.93
2024-01-17T05:25:47.929Z,-7.99
2024-01-17T05:28:16.405Z,-8.02
2024-01-17T05:30:43.360Z,-8.05
2024-01-17T05:33:10.555Z,-8.06
2024-01-17T05:35:38.826Z,-8.06
2024-01-17T05:38:06.037Z,-8.07
2024-01-17T05:40:32.987Z,-8.09
2024-01-17T05:43:01.827Z,-8.15
2024-01-17T05:45:28.914Z,-8.22
2024-01-17T05:47:55.850Z,-8.26
2024-01-17T05:50:24.555Z,-8.34
2024-01-17T05:52:51.482Z,-8.40
2024-01-17T05:55:18.551Z,-8.48
2024-01-17T05:57:46.697Z,-8.54
2024-01-17T06:00:13.727Z,-8.56
2024-01-17T06:02:41.044Z,-8.58
2024-01-17T06:05:09.332Z,-8.58
2024-01-17T06:07:36.331Z,-8.58
2024-01-17T06:10:03.073Z,-8.54
2024-01-17T06:12:31.251Z,-8.46
2024-01-17T06:14:58.312Z,-8.33
2024-01-17T06:17:25.351Z,-8.18
2024-01-17T06:19:53.636Z,-8.01
2024-01-17T06:22:20.758Z,-7.87
2024-01-17T06:24:47.958Z,-7.78
2024-01-17T06:27:16.398Z,-7.71
2024-01-17T06:29:43.573Z,-7.66
2024-01-17T06:32:10.282Z,-7.59
2024-01-17T06:34:39.005Z,-7.48
2024-01-17T06:37:06.073Z,-7.35
2024-01-17T06:39:33.159Z,-7.21
2024-01-17T06:42:01.382Z,-7.06
2024-01-17T06:44:28.405Z,-6.88
2024-01-17T06:46:55.328Z,-6.76
2024-01-17T06:49:23.407Z,-6.67
2024-01-17T06:51:50.451Z,-6.53
2024-01-17T06:54:17.254Z,-6.33
2024-01-17T06:56:45.402Z,-6.13
2024-01-17T06:59:12.911Z,-5.92
2024-01-17T07:01:40.065Z,-5.69
2024-01-17T07:04:08.652Z,-5.45
2024-01-17T07:06:35.773Z,-5.24
2024-01-17T07:09:02.787Z,-5.02
2024-01-17T07:11:31.071Z,-4.83
2024-01-17T07:13:58.056Z,-4.66
2024-01-17T07:16:24.806Z,-4.52
2024-01-17T07:18:53.045Z,-4.40
2024-01-17T07:21:20.167Z,-4.32
2024-01-17T07:23:47.206Z,-4.23
2024-01-17T07:26:15.472Z,-4.14
2024-01-17T07:28:42.703Z,-4.07
2024-01-17T07:31:09.746Z,-3.97
2024-01-17T07:33:38.075Z,-3.77
2024-01-17T07:36:05.242Z,-3.52
2024-01-17T07:38:32.293Z,-3.37
2024-01-17T07:41:00.801Z,-3.27
2024-01-17T07:43:27.795Z,-3.09
2024-01-17T07:45:54.801Z,-2.78
2024-01-17T07:48:22.983Z,-2.53
2024-01-17T07:50:50.544Z,-1.85
2024-01-17T07:53:17.610Z,-0.90
2024-01-17T07:55:45.890Z,0.04
2024-01-17T07:58:12.797Z,0.83
2024-01-17T08:00:40.118Z,0.88
2024-01-17T08:03:08.678Z,1.14
2024-01-17T08:05:35.938Z,1.35
2024-01-17T08:08:02.946Z,1.19
2024-01-17T08:10:31.151Z,1.16
2024-01-17T08:12:58.255Z,1.60
2024-01-17T08:15:25.352Z,2.48
2024-01-17T08:17:53.814Z,3.44
2024-01-17T08:20:21.063Z,4.26
2024-01-17T08:22:48.184Z,4.92
2024-01-17T08:25:16.571Z,5.37
2024-01-17T08:27:43.729Z,5.68
2024-01-17T08:30:11.561Z,6.03
2024-01-17T08:32:40.395Z,6.27
2024-01-17T08:35:07.825Z,6.30
2024-01-17T08:37:35.288Z,6.16
2024-01-17T08:40:03.666Z,6.27
2024-01-17T08:42:30.627Z,6.44
2024-01-17T08:44:57.816Z,6.48
2024-01-17T08:47:26.310Z,6.14
2024-01-17T08:49:53.403Z,5.38
2024-01-17T08:52:20.747Z,4.61
2024-01-17T08:54:49.343Z,4.22
2024-01-17T08:57:16.520Z,3.94
2024-01-17T08:59:43.750Z,3.45
2024-01-17T09:02:12.301Z,2.86
2024-01-17T09:04:39.205Z,2.64
2024-01-17T09:07:06.532Z,2.60
2024-01-17T09:09:35.133Z,2.68
2024-01-17T09:12:02.371Z,2.81
2024-01-17T09:14:30.069Z,2.83
2024-01-17T09:16:58.601Z,2.79
2024-01-17T09:19:25.621Z,2.71
2024-01-17T09:21:53.082Z,2.58
2024-01-17T09:24:21.972Z,2.50
2024-01-17T09:26:49.660Z,2.42
2024-01-17T09:29:16.821Z,2.32
2024-01-17T09:31:45.205Z,2.28
2024-01-17T09:34:12.619Z,2.25
2024-01-17T09:36:39.839Z,2.25
2024-01-17T09:39:08.635Z,2.22
2024-01-17T09:41:36.158Z,2.16
2024-01-17T09:44:03.295Z,2.03
2024-01-17T09:46:31.663Z,1.94
2024-01-17T09:49:00.859Z,1.91
2024-01-17T09:51:31.350Z,1.87
2024-01-17T09:53:58.757Z,1.81
2024-01-17T09:56:26.319Z,1.77
2024-01-17T09:58:55.025Z,1.71
2024-01-17T10:01:22.271Z,1.65
2024-01-17T10:03:49.662Z,1.62
2024-01-17T10:06:18.417Z,1.64
2024-01-17T10:08:45.548Z,1.62
2024-01-17T10:11:12.737Z,1.54
2024-01-17T10:13:41.742Z,1.46
2024-01-17T10:16:09.189Z,1.41
2024-01-17T10:18:36.504Z,1.35
2024-01-17T10:21:05.061Z,1.24
2024-01-17T10:23:32.258Z,1.09
2024-01-17T10:26:00.012Z,0.95
2024-01-17T10:28:28.566Z,0.87
2024-01-17T10:30:55.838Z,0.82
2024-01-17T10:33:23.108Z,0.76
2024-01-17T10:35:51.696Z,0.74
2024-01-17T10:38:19.974Z,0.75
2024-01-17T10:40:46.883Z,0.77
2024-01-17T10:43:15.245Z,0.84
2024-01-17T10:45:42.275Z,0.87
2024-01-17T10:48:09.454Z,0.80
2024-01-17T10:50:38.031Z,0.67
2024-01-17T10:53:05.386Z,0.50
2024-01-17T10:55:32.507Z,0.35
2024-01-17T10:58:01.316Z,0.21
2024-01-17T11:00:29.086Z,0.10
2024-01-17T11:02:56.143Z,0.01
2024-01-17T11:05:24.705Z,-0.09
2024-01-17T11:07:51.919Z,-0.15
2024-01-17T11:10:19.005Z,-0.21
2024-01-17T11:12:48.009Z,-0.23
2024-01-17T11:15:15.737Z,-0.25
2024-01-17T11:17:42.925Z,-0.25
2024-01-17T11:20:11.449Z,-0.24
2024-01-17T11:22:38.993Z,-0.22
2024-01-17T11:25:05.987Z,-0.16
2024-01-17T11:27:34.573Z,-0.10
2024-01-17T11:30:01.800Z,-0.05
2024-01-17T11:32:29.218Z,0.03
2024-01-17T11:34:57.458Z,0.12
2024-01-17T11:37:24.610Z,0.24
2024-01-17T11:39:51.755Z,0.32
2024-01-17T11:42:20.281Z,0.40
2024-01-17T11:44:55.246Z,0.50
2024-01-17T11:47:30.406Z,0.62
2024-01-17T11:49:57.629Z,0.70
2024-01-17T11:52:24.697Z,0.79
2024-01-17T11:54:53.490Z,0.89
2024-01-17T11:57:20.690Z,0.99
2024-01-17T11:59:47.796Z,1.14
2024-01-17T12:02:16.269Z,1.28
2024-01-17T12:04:43.629Z,1.43
2024-01-17T12:07:10.840Z,1.59
2024-01-17T12:09:39.732Z,1.72
2024-01-17T12:12:06.904Z,1.81
2024-01-17T12:14:34.124Z,1.91
2024-01-17T12:17:02.246Z,2.06
2024-01-17T12:19:29.228Z,2.20
2024-01-17T12:21:56.776Z,2.29
2024-01-17T12:24:35.351Z,2.30
2024-01-17T12:27:12.184Z,2.27
2024-01-17T12:29:39.324Z,2.30
2024-01-17T12:32:06.527Z,2.31
2024-01-17T12:34:34.913Z,2.34
2024-01-17T12:37:02.061Z,2.28
2024-01-17T12:39:29.028Z,2.19
2024-01-17T12:41:57.541Z,2.12
2024-01-17T12:44:24.616Z,2.07
2024-01-17T12:46:52.089Z,1.99
2024-01-17T12:49:20.663Z,1.96
2024-01-17T12:51:47.810Z,1.93
2024-01-17T12:54:15.082Z,1.91
2024-01-17T12:56:43.487Z,1.86
2024-01-17T12:59:10.596Z,1.84
2024-01-17T13:01:37.697Z,1.82
2024-01-17T13:04:06.221Z,1.84
2024-01-17T13:06:33.585Z,1.81
2024-01-17T13:09:00.939Z,1.78
2024-01-17T13:11:29.325Z,1.76
2024-01-17T13:13:56.464Z,1.72
2024-01-17T13:16:23.704Z,1.72
2024-01-17T13:18:53.489Z,1.72
2024-01-17T13:21:21.771Z,1.71
2024-01-17T13:23:51.249Z,1.68
2024-01-17T13:26:18.476Z,1.68
2024-01-17T13:28:45.605Z,1.68
2024-01-17T13:31:13.971Z,1.68
2024-01-17T13:33:41.128Z,1.66
2024-01-17T13:36:08.637Z,1.63
2024-01-17T13:38:37.375Z,1.62
2024-01-17T13:41:04.621Z,1.58
2024-01-17T13:43:31.710Z,1.54
2024-01-17T13:46:00.194Z,1.48
2024-01-17T13:48:27.752Z,1.44
2024-01-17T13:50:54.989Z,1.42
2024-01-17T13:53:23.144Z,1.38
2024-01-17T13:55:50.304Z,1.31
2024-01-17T13:58:17.549Z,1.25
2024-01-17T14:00:46.350Z,1.21
2024-01-17T14:03:13.559Z,1.16
2024-01-17T14:05:40.879Z,1.12
2024-01-17T14:08:09.305Z,1.07
2024-01-17T14:10:36.562Z,1.00
2024-01-17T14:13:03.716Z,0.94
2024-01-17T14:15:31.944Z,0.88
2024-01-17T14:17:59.548Z,0.82
2024-01-17T14:20:26.711Z,0.76
2024-01-17T14:22:54.976Z,0.72
2024-01-17T14:25:22.225Z,0.69
2024-01-17T14:27:49.882Z,0.65
2024-01-17T14:30:18.377Z,0.64
2024-01-17T14:32:45.722Z,0.61
2024-01-17T14:35:12.917Z,0.59
2024-01-17T14:37:41.635Z,0.57
2024-01-17T14:40:09.633Z,0.55
2024-01-17T14:42:36.857Z,0.54
2024-01-17T14:45:05.278Z,0.52
2024-01-17T14:47:32.406Z,0.50
2024-01-17T14:49:59.700Z,0.49
2024-01-17T14:52:28.146Z,0.47
2024-01-17T14:54:55.389Z,0.45
2024-01-17T14:57:22.597Z,0.42
2024-01-17T14:59:51.108Z,0.41
2024-01-17T15:02:18.270Z,0.38
2024-01-17T15:04:45.820Z,0.36
2024-01-17T15:07:14.408Z,0.35
2024-01-17T15:09:48.830Z,0.33
2024-01-17T15:12:18.256Z,0.31
2024-01-17T15:14:45.602Z,0.28
2024-01-17T15:17:12.738Z,0.27
2024-01-17T15:19:41.041Z,0.26
2024-01-17T15:22:08.392Z,0.25
2024-01-17T15:24:35.505Z,0.24
2024-01-17T15:27:03.716Z,0.25
2024-01-17T15:29:30.671Z,0.28
2024-01-17T15:31:58.078Z,0.35
2024-01-17T15:34:26.505Z,0.42
2024-01-17T15:36:53.739Z,0.47
2024-01-17T15:39:21.121Z,0.51
2024-01-17T15:41:49.594Z,0.52
2024-01-17T15:44:16.696Z,0.52
2024-01-17T15:46:43.842Z,0.53
2024-01-17T15:49:11.999Z,0.52
2024-01-17T15:51:38.864Z,0.52
2024-01-17T15:54:05.916Z,0.51
2024-01-17T15:56:36.280Z,0.50
2024-01-17T15:59:04.289Z,0.50
2024-01-17T16:01:33.506Z,0.49
2024-01-17T16:04:00.588Z,0.49
2024-01-17T16:06:27.748Z,0.50
2024-01-17T16:08:56.184Z,0.49
2024-01-17T16:11:23.119Z,0.48
2024-01-17T16:13:50.191Z,0.50
2024-01-17T16:16:18.436Z,0.54
2024-01-17T16:18:45.482Z,0.58
2024-01-17T16:21:12.752Z,0.64
2024-01-17T16:23:40.852Z,0.69
2024-01-17T16:26:07.754Z,0.73
2024-01-17T16:28:34.706Z,0.78
2024-01-17T16:31:02.965Z,0.80
2024-01-17T16:33:30.449Z,0.81
2024-01-17T16:35:57.644Z,0.81
2024-01-17T16:38:26.041Z,0.81
2024-01-17T16:40:53.108Z,0.80
2024-01-17T16:43:20.037Z,0.78
2024-01-17T16:45:48.300Z,0.77
2024-01-17T16:48:15.583Z,0.77
2024-01-17T16:50:44.516Z,0.80
2024-01-17T16:53:13.654Z,0.84
2024-01-17T16:55:40.632Z,0.89
2024-01-17T16:58:07.652Z,0.92
2024-01-17T17:00:35.909Z,0.94
2024-01-17T17:03:03.024Z,0.96
2024-01-17T17:05:30.253Z,0.98
2024-01-17T17:07:58.916Z,0.99
2024-01-17T17:10:25.758Z,0.99
2024-01-17T17:12:52.701Z,1.00
2024-01-17T17:15:20.973Z,1.00
2024-01-17T17:17:48.009Z,1.02
2024-01-17T17:20:15.174Z,1.05
2024-01-17T17:22:43.759Z,1.08
2024-01-17T17:25:10.819Z,1.11
2024-01-17T17:27:37.838Z,1.14
2024-01-17T17:30:06.531Z,1.16
2024-01-17T17:32:33.646Z,1.18
2024-01-17T17:35:00.939Z,1.18
2024-01-17T17:37:29.355Z,1.17
2024-01-17T17:39:56.360Z,1.16
2024-01-17T17:42:24.122Z,1.15
2024-01-17T17:44:52.610Z,1.14
2024-01-17T17:47:19.855Z,1.14
2024-01-17T17:49:46.987Z,1.15
2024-01-17T17:52:15.390Z,1.18
2024-01-17T17:54:42.304Z,1.20
2024-01-17T17:57:09.298Z,1.20
2024-01-17T17:59:37.438Z,1.19
2024-01-17T18:02:04.908Z,1.18
2024-01-17T18:04:31.954Z,1.16
2024-01-17T18:07:00.858Z,1.14
2024-01-17T18:09:28.032Z,1.14
2024-01-17T18:11:55.072Z,1.16
2024-01-17T18:14:23.404Z,1.20
2024-01-17T18:16:50.456Z,1.23
2024-01-17T18:19:17.523Z,1.27
2024-01-17T18:21:45.782Z,1.28
2024-01-17T18:24:12.760Z,1.28
2024-01-17T18:26:39.880Z,1.28
2024-01-17T18:29:08.146Z,1.27
2024-01-17T18:31:38.182Z,1.25
2024-01-17T18:34:07.865Z,1.24
2024-01-17T18:36:35.113Z,1.23
2024-01-17T18:39:02.347Z,1.25
2024-01-17T18:41:30.851Z,1.28
2024-01-17T18:43:57.829Z,1.31
2024-01-17T18:46:24.740Z,1.32
2024-01-17T18:48:53.066Z,1.34
2024-01-17T18:51:20.356Z,1.32
2024-01-17T18:53:47.485Z,1.30
2024-01-17T18:56:16.122Z,1.28
2024-01-17T18:58:43.379Z,1.26
2024-01-17T19:01:10.819Z,1.24
2024-01-17T19:03:39.418Z,1.24
2024-01-17T19:06:06.698Z,1.26
2024-01-17T19:08:34.383Z,1.30
2024-01-17T19:11:02.703Z,1.34
2024-01-17T19:13:29.622Z,1.37
2024-01-17T19:15:56.577Z,1.40
2024-01-17T19:18:24.903Z,1.41
2024-01-17T19:20:52.064Z,1.42
2024-01-17T19:23:19.062Z,1.43
2024-01-17T19:25:47.325Z,1.43
2024-01-17T19:28:14.268Z,1.44
2024-01-17T19:30:41.583Z,1.47
2024-01-17T19:33:10.221Z,1.50
2024-01-17T19:35:37.389Z,1.53
2024-01-17T19:38:04.204Z,1.54
2024-01-17T19:40:32.470Z,1.56
2024-01-17T19:42:59.878Z,1.56
2024-01-17T19:45:27.024Z,1.55
2024-01-17T19:47:55.474Z,1.54
2024-01-17T19:50:22.498Z,1.52
2024-01-17T19:52:49.657Z,1.52
2024-01-17T19:55:18.319Z,1.54
2024-01-17T19:57:45.383Z,1.58
2024-01-17T20:00:12.465Z,1.63
2024-01-17T20:02:40.848Z,1.65
2024-01-17T20:05:08.462Z,1.66
2024-01-17T20:07:35.558Z,1.68
2024-01-17T20:10:03.926Z,1.67
2024-01-17T20:12:31.343Z,1.66
2024-01-17T20:14:58.770Z,1.65
2024-01-17T20:17:27.547Z,1.65
2024-01-17T20:19:54.872Z,1.67
2024-01-17T20:22:21.912Z,1.68
2024-01-17T20:24:50.186Z,1.70
2024-01-17T20:27:17.376Z,1.70
2024-01-17T20:29:44.478Z,1.70
2024-01-17T20:32:12.736Z,1.68
2024-01-17T20:34:39.873Z,1.65
2024-01-17T20:37:07.051Z,1.63
2024-01-17T20:39:35.217Z,1.62
2024-01-17T20:42:02.493Z,1.64
2024-01-17T20:44:29.517Z,1.68
2024-01-17T20:46:57.894Z,1.70
2024-01-17T20:49:25.016Z,1.73
2024-01-17T20:51:52.243Z,1.74
2024-01-17T20:54:20.499Z,1.74
2024-01-17T20:56:47.227Z,1.74
2024-01-17T20:59:14.260Z,1.76
2024-01-17T21:01:42.455Z,1.78
2024-01-17T21:04:09.720Z,1.82
2024-01-17T21:06:37.191Z,1.88
2024-01-17T21:09:05.804Z,1.92
2024-01-17T21:11:32.967Z,1.95
2024-01-17T21:13:59.922Z,1.97
2024-01-17T21:16:27.983Z,2.00
2024-01-17T21:18:55.562Z,2.05
2024-01-17T21:21:22.817Z,2.10
2024-01-17T21:23:51.424Z,2.15
2024-01-17T21:26:18.422Z,2.18
2024-01-17T21:28:45.374Z,2.20
2024-01-17T21:31:13.638Z,2.22
2024-01-17T21:33:40.702Z,2.22
2024-01-17T21:36:07.878Z,2.23
2024-01-17T21:38:36.111Z,2.24
2024-01-17T21:41:03.473Z,2.27
2024-01-17T21:43:30.526Z,2.29
2024-01-17T21:45:58.909Z,2.29
2024-01-17T21:48:25.830Z,2.28
2024-01-17T21:50:53.079Z,2.26
2024-01-17T21:53:21.668Z,2.25
2024-01-17T21:55:48.505Z,2.24
2024-01-17T21:58:15.660Z,2.26
2024-01-17T22:00:44.066Z,2.28
2024-01-17T22:03:11.216Z,2.28
2024-01-17T22:05:38.544Z,2.28
2024-01-17T22:08:07.013Z,2.28
2024-01-17T22:10:33.884Z,2.26
2024-01-17T22:13:00.802Z,2.26
2024-01-17T22:15:29.032Z,2.27
2024-01-17T22:17:56.414Z,2.31
2024-01-17T22:20:23.267Z,2.34
2024-01-17T22:22:51.539Z,2.37
2024-01-17T22:25:18.493Z,2.38
2024-01-17T22:27:45.441Z,2.41
2024-01-17T22:30:13.445Z,2.42
2024-01-17T22:32:40.578Z,2.43
2024-01-17T22:35:07.818Z,2.46
2024-01-17T22:37:35.882Z,2.49
2024-01-17T22:40:02.839Z,2.51
2024-01-17T22:42:29.943Z,2.53
2024-01-17T22:44:58.270Z,2.55
2024-01-17T22:47:25.535Z,2.55
2024-01-17T22:49:52.545Z,2.55
2024-01-17T22:52:20.719Z,2.56
2024-01-17T22:54:47.771Z,2.58
2024-01-17T22:57:14.752Z,2.60
2024-01-17T22:59:45.116Z,2.60
2024-01-17T23:02:12.293Z,2.62
2024-01-17T23:04:41.416Z,2.61
2024-01-17T23:07:08.599Z,2.60
2024-01-17T23:09:35.446Z,2.59
2024-01-17T23:12:04.071Z,2.59
2024-01-17T23:14:31.144Z,2.63
2024-01-17T23:16:58.471Z,2.68
2024-01-17T23:19:26.860Z,2.72
2024-01-17T23:21:54.202Z,2.75
2024-01-17T23:24:21.166Z,2.77
2024-01-17T23:26:49.547Z,2.78
2024-01-17T23:29:16.762Z,2.78
2024-01-17T23:31:43.613Z,2.82
2024-01-17T23:34:11.837Z,2.86
2024-01-17T23:36:38.774Z,2.90
2024-01-17T23:39:05.798Z,2.93
2024-01-17T23:41:33.959Z,2.96
2024-01-17T23:44:00.785Z,2.97
2024-01-17T23:46:27.946Z,3.00
2024-01-17T23:48:56.480Z,3.02
2024-01-17T23:51:23.578Z,3.05
2024-01-17T23:53:50.519Z,3.09
2024-01-17T23:56:18.696Z,3.14
2024-01-17T23:58:45.602Z,3.18
